Time;durP1;ratioP1;P1;durP2;ratioP2;P2;SDS_P1;SDS_P2;PMS_P1;PMS_P2;Temp;Humidity;BMP_temperature;BMP_pressure;BME280_temperature;BME280_humidity;BME280_pressure;Samples;Min_cycle;Max_cycle;Signal;HPM_P1;HPM_P2
2023/07/18 00:01:10;;;;;;;5.85;4.15;;;;;;;;;;5001116;28;20193;-69
2023/07/18 00:03:36;;;;;;;10.93;5.15;;;;;;;;;;4996471;28;20224;-69
2023/07/18 00:06:01;;;;;;;8.80;4.32;;;;;;;;;;4998726;28;20203;-69
2023/07/18 00:08:26;;;;;;;9.98;4.63;;;;;;;;;;4996631;28;20546;-69
2023/07/18 00:10:52;;;;;;;8.57;4.15;;;;;;;;;;5005565;28;20245;-68
2023/07/18 00:13:17;;;;;;;12.07;4.85;;;;;;;;;;4985142;28;20206;-68
2023/07/18 00:15:44;;;;;;;11.40;4.82;;;;;;;;;;5009535;28;20533;-68
2023/07/18 00:18:10;;;;;;;7.80;4.43;;;;;;;;;;5009417;28;20217;-69
2023/07/18 00:20:36;;;;;;;10.02;3.92;;;;;;;;;;5010128;28;20195;-69
2023/07/18 00:23:01;;;;;;;11.40;4.60;;;;;;;;;;5024592;28;20189;-69
2023/07/18 00:25:27;;;;;;;7.57;4.32;;;;;;;;;;5012618;28;20198;-69
2023/07/18 00:27:53;;;;;;;9.48;4.40;;;;;;;;;;5021637;28;20233;-69
2023/07/18 00:30:20;;;;;;;9.98;4.28;;;;;;;;;;5002656;28;21052;-69
2023/07/18 00:32:46;;;;;;;10.60;4.55;;;;;;;;;;5005458;28;20624;-69
2023/07/18 00:35:16;;;;;;;10.15;3.70;;;;;;;;;;5006152;28;20195;-69
2023/07/18 00:37:42;;;;;;;8.48;4.30;;;;;;;;;;5012228;28;20191;-69
2023/07/18 00:40:12;;;;;;;8.13;3.80;;;;;;;;;;5012076;28;20187;-69
2023/07/18 00:42:38;;;;;;;7.93;3.85;;;;;;;;;;5004941;28;20270;-68
2023/07/18 00:45:05;;;;;;;11.23;3.88;;;;;;;;;;5008166;28;20183;-69
2023/07/18 00:47:37;;;;;;;8.75;3.60;;;;;;;;;;5019431;28;20195;-68
2023/07/18 00:50:04;;;;;;;12.38;4.22;;;;;;;;;;5011322;28;20524;-70
2023/07/18 00:52:30;;;;;;;9.73;4.03;;;;;;;;;;5010779;28;20210;-68
2023/07/18 00:54:55;;;;;;;8.45;4.60;;;;;;;;;;5003994;28;20244;-68
2023/07/18 00:57:21;;;;;;;9.93;3.95;;;;;;;;;;5000793;28;20266;-69
2023/07/18 00:59:49;;;;;;;10.75;4.47;;;;;;;;;;5011372;28;20246;-68
2023/07/18 01:02:14;;;;;;;9.52;4.50;;;;;;;;;;5011975;28;20277;-68
2023/07/18 01:04:41;;;;;;;10.20;4.70;;;;;;;;;;5011421;28;20275;-67
2023/07/18 01:07:06;;;;;;;10.80;4.65;;;;;;;;;;4996567;28;20607;-68
2023/07/18 01:09:31;;;;;;;10.45;4.70;;;;;;;;;;4993012;28;20252;-69
2023/07/18 01:11:57;;;;;;;8.90;4.63;;;;;;;;;;5005620;28;20256;-68
2023/07/18 01:14:25;;;;;;;9.35;4.82;;;;;;;;;;5011358;28;20195;-67
2023/07/18 01:16:53;;;;;;;9.35;4.55;;;;;;;;;;5004484;28;20792;-67
2023/07/18 01:19:19;;;;;;;11.05;4.20;;;;;;;;;;4984234;28;20179;-68
2023/07/18 01:21:45;;;;;;;9.43;4.10;;;;;;;;;;5006337;28;20240;-68
2023/07/18 01:24:10;;;;;;;9.38;4.50;;;;;;;;;;5003921;28;20266;-69
2023/07/18 01:26:35;;;;;;;12.43;4.70;;;;;;;;;;5004720;28;20231;-68
2023/07/18 01:29:01;;;;;;;12.15;4.65;;;;;;;;;;5009823;28;20585;-68
2023/07/18 01:31:27;;;;;;;12.93;4.57;;;;;;;;;;5006112;28;20299;-68
2023/07/18 01:33:53;;;;;;;9.07;4.63;;;;;;;;;;5004441;28;20205;-68
2023/07/18 01:36:18;;;;;;;9.27;4.65;;;;;;;;;;5008474;28;20190;-69
2023/07/18 01:38:44;;;;;;;13.75;4.45;;;;;;;;;;4992981;28;20187;-68
2023/07/18 01:41:09;;;;;;;9.80;4.90;;;;;;;;;;5003316;28;20253;-69
2023/07/18 01:43:35;;;;;;;6.93;4.43;;;;;;;;;;5010632;28;20198;-69
2023/07/18 01:46:01;;;;;;;10.35;4.65;;;;;;;;;;5003900;28;20202;-69
2023/07/18 01:48:27;;;;;;;11.65;4.70;;;;;;;;;;4991182;28;20204;-68
2023/07/18 01:50:53;;;;;;;10.45;4.35;;;;;;;;;;5008758;28;20187;-69
2023/07/18 01:53:19;;;;;;;10.45;4.55;;;;;;;;;;4996811;28;20188;-68
2023/07/18 01:55:44;;;;;;;9.13;4.47;;;;;;;;;;5002830;28;20723;-68
2023/07/18 01:58:09;;;;;;;14.65;4.63;;;;;;;;;;5010352;28;20206;-69
2023/07/18 02:00:35;;;;;;;8.18;4.22;;;;;;;;;;5005291;28;20249;-69
2023/07/18 02:03:01;;;;;;;9.65;4.22;;;;;;;;;;4996883;28;20194;-69
2023/07/18 02:05:28;;;;;;;7.85;4.53;;;;;;;;;;4991042;28;20218;-69
2023/07/18 02:07:54;;;;;;;13.13;5.03;;;;;;;;;;5011840;28;20209;-69
2023/07/18 02:10:21;;;;;;;12.07;4.97;;;;;;;;;;5009800;28;20183;-69
2023/07/18 02:12:52;;;;;;;12.75;5.03;;;;;;;;;;4994409;28;20187;-69
2023/07/18 02:15:19;;;;;;;13.65;5.60;;;;;;;;;;4996350;28;20246;-69
2023/07/18 02:17:45;;;;;;;14.43;5.15;;;;;;;;;;5001993;28;20264;-68
2023/07/18 02:20:12;;;;;;;12.38;5.70;;;;;;;;;;4993832;28;20673;-69
2023/07/18 02:22:39;;;;;;;11.57;5.78;;;;;;;;;;5002027;28;20203;-68
2023/07/18 02:25:05;;;;;;;10.65;5.15;;;;;;;;;;4996641;28;20684;-68
2023/07/18 02:27:33;;;;;;;12.10;5.35;;;;;;;;;;5007976;28;20254;-68
2023/07/18 02:30:00;;;;;;;12.73;5.28;;;;;;;;;;4996662;28;20211;-68
2023/07/18 02:32:28;;;;;;;12.95;5.95;;;;;;;;;;5001843;28;20638;-67
2023/07/18 02:34:53;;;;;;;11.20;5.32;;;;;;;;;;5007295;28;20194;-69
2023/07/18 02:37:18;;;;;;;10.10;4.68;;;;;;;;;;5004278;28;20191;-67
2023/07/18 02:39:44;;;;;;;10.25;5.05;;;;;;;;;;5000102;28;20249;-68
2023/07/18 02:42:11;;;;;;;8.07;4.50;;;;;;;;;;5005935;28;20191;-68
2023/07/18 02:44:36;;;;;;;10.98;5.05;;;;;;;;;;5013277;28;20262;-67
2023/07/18 02:47:02;;;;;;;10.65;4.88;;;;;;;;;;5013793;28;20241;-69
2023/07/18 02:49:27;;;;;;;9.98;5.15;;;;;;;;;;5002277;28;20211;-67
2023/07/18 02:51:52;;;;;;;8.73;5.25;;;;;;;;;;5011305;28;20218;-68
2023/07/18 02:54:18;;;;;;;8.55;4.93;;;;;;;;;;5004037;28;20258;-68
2023/07/18 02:56:43;;;;;;;8.38;4.85;;;;;;;;;;5003873;28;20560;-67
2023/07/18 02:59:08;;;;;;;14.15;5.20;;;;;;;;;;5001450;28;20186;-68
2023/07/18 03:01:34;;;;;;;9.82;4.55;;;;;;;;;;5008645;28;20671;-69
2023/07/18 03:04:00;;;;;;;7.60;4.93;;;;;;;;;;5016347;28;20190;-67
2023/07/18 03:06:26;;;;;;;10.85;4.88;;;;;;;;;;5017488;28;20189;-68
2023/07/18 03:08:51;;;;;;;11.45;5.13;;;;;;;;;;4998729;28;20191;-68
2023/07/18 03:11:18;;;;;;;12.82;5.88;;;;;;;;;;5010139;28;20286;-69
2023/07/18 03:13:43;;;;;;;10.75;4.97;;;;;;;;;;4999580;28;20198;-68
2023/07/18 03:16:09;;;;;;;15.85;5.18;;;;;;;;;;5012690;28;20191;-69
2023/07/18 03:18:34;;;;;;;10.15;5.03;;;;;;;;;;5013554;28;20693;-68
2023/07/18 03:20:59;;;;;;;8.80;5.15;;;;;;;;;;5011901;28;20288;-69
2023/07/18 03:23:28;;;;;;;10.02;5.25;;;;;;;;;;5013823;28;20552;-69
2023/07/18 03:25:53;;;;;;;9.45;5.35;;;;;;;;;;5013039;28;20256;-69
2023/07/18 03:28:19;;;;;;;14.13;5.65;;;;;;;;;;5012815;28;20235;-69
2023/07/18 03:30:45;;;;;;;14.73;5.43;;;;;;;;;;4983489;28;20195;-68
2023/07/18 03:33:12;;;;;;;12.93;5.03;;;;;;;;;;5005982;28;20218;-68
2023/07/18 03:35:38;;;;;;;9.82;5.07;;;;;;;;;;5011992;28;20195;-68
2023/07/18 03:38:03;;;;;;;12.40;5.13;;;;;;;;;;5010850;28;20187;-68
2023/07/18 03:40:28;;;;;;;15.05;4.85;;;;;;;;;;5001964;28;20192;-68
2023/07/18 03:42:54;;;;;;;14.45;5.38;;;;;;;;;;5007889;28;20194;-69
2023/07/18 03:45:20;;;;;;;11.95;5.47;;;;;;;;;;4998477;28;20230;-68
2023/07/18 03:47:45;;;;;;;10.07;5.68;;;;;;;;;;5011867;28;20190;-69
2023/07/18 03:50:14;;;;;;;12.73;6.57;;;;;;;;;;5000781;28;20206;-69
2023/07/18 03:52:39;;;;;;;14.27;5.70;;;;;;;;;;5013550;28;20230;-69
2023/07/18 03:55:06;;;;;;;11.43;5.65;;;;;;;;;;4993090;28;20595;-69
2023/07/18 03:57:33;;;;;;;12.13;5.72;;;;;;;;;;5008413;28;20190;-69
2023/07/18 03:59:58;;;;;;;12.80;5.80;;;;;;;;;;5000963;28;20209;-69
2023/07/18 04:02:24;;;;;;;11.38;6.00;;;;;;;;;;4999215;28;20266;-69
2023/07/18 04:04:50;;;;;;;10.30;5.93;;;;;;;;;;4991953;28;20661;-69
2023/07/18 04:07:15;;;;;;;12.63;5.78;;;;;;;;;;5010378;28;20198;-68
2023/07/18 04:09:41;;;;;;;12.20;5.97;;;;;;;;;;5002262;28;20226;-69
2023/07/18 04:12:07;;;;;;;9.55;5.55;;;;;;;;;;5007775;28;20329;-68
2023/07/18 04:14:35;;;;;;;14.40;6.10;;;;;;;;;;5010095;28;20187;-69
2023/07/18 04:17:01;;;;;;;11.25;5.63;;;;;;;;;;5004243;28;20211;-68
2023/07/18 04:19:26;;;;;;;13.25;5.93;;;;;;;;;;4992597;28;20666;-69
2023/07/18 04:21:51;;;;;;;12.38;5.30;;;;;;;;;;4998904;28;20209;-69
2023/07/18 04:24:17;;;;;;;11.50;6.30;;;;;;;;;;4994161;28;20203;-68
2023/07/18 04:26:42;;;;;;;9.45;5.90;;;;;;;;;;5002220;28;20226;-68
2023/07/18 04:29:07;;;;;;;11.98;5.45;;;;;;;;;;4978514;28;20226;-69
2023/07/18 04:31:33;;;;;;;13.63;5.95;;;;;;;;;;5000460;28;20230;-68
2023/07/18 04:33:59;;;;;;;14.43;6.07;;;;;;;;;;4997335;28;20559;-69
2023/07/18 04:36:25;;;;;;;10.98;5.80;;;;;;;;;;4995562;28;20210;-68
2023/07/18 04:38:50;;;;;;;15.18;5.75;;;;;;;;;;5011320;28;20198;-69
2023/07/18 04:41:16;;;;;;;12.18;5.85;;;;;;;;;;4995038;28;20191;-68
2023/07/18 04:43:41;;;;;;;13.27;5.72;;;;;;;;;;4998114;28;20192;-68
2023/07/18 04:46:08;;;;;;;10.82;5.55;;;;;;;;;;4994378;28;20234;-68
2023/07/18 04:48:33;;;;;;;14.15;5.65;;;;;;;;;;5003963;28;20566;-68
2023/07/18 04:51:01;;;;;;;15.02;5.97;;;;;;;;;;4992979;28;20192;-68
2023/07/18 04:53:27;;;;;;;12.15;6.32;;;;;;;;;;5000706;28;20191;-68
2023/07/18 04:55:55;;;;;;;12.43;5.63;;;;;;;;;;5003037;28;21660;-68
2023/07/18 04:58:20;;;;;;;13.30;5.97;;;;;;;;;;4999999;28;20222;-68
2023/07/18 05:00:46;;;;;;;13.35;5.80;;;;;;;;;;5001864;28;20219;-69
2023/07/18 05:03:11;;;;;;;19.85;6.60;;;;;;;;;;5001553;28;20195;-69
2023/07/18 05:05:36;;;;;;;16.00;7.40;;;;;;;;;;5014736;28;20229;-68
2023/07/18 05:08:03;;;;;;;14.23;6.75;;;;;;;;;;5001033;28;20207;-68
2023/07/18 05:10:29;;;;;;;13.35;7.20;;;;;;;;;;5007697;28;20676;-69
2023/07/18 05:12:55;;;;;;;13.32;6.88;;;;;;;;;;5006385;28;20262;-69
2023/07/18 05:15:21;;;;;;;13.00;6.88;;;;;;;;;;5004847;28;20187;-69
2023/07/18 05:17:47;;;;;;;12.77;7.07;;;;;;;;;;5009960;28;20217;-69
2023/07/18 05:20:13;;;;;;;11.45;6.38;;;;;;;;;;5000538;28;20686;-69
2023/07/18 05:22:44;;;;;;;13.68;6.38;;;;;;;;;;5004288;28;20209;-69
2023/07/18 05:25:11;;;;;;;15.18;7.00;;;;;;;;;;4992133;28;20678;-69
2023/07/18 05:27:38;;;;;;;13.50;7.10;;;;;;;;;;5004727;28;20710;-69
2023/07/18 05:30:06;;;;;;;13.20;6.22;;;;;;;;;;4997679;28;20226;-69
2023/07/18 05:32:32;;;;;;;11.75;6.28;;;;;;;;;;5008613;28;20218;-70
2023/07/18 05:34:59;;;;;;;15.07;6.55;;;;;;;;;;5009700;28;20607;-68
2023/07/18 05:37:25;;;;;;;15.55;6.55;;;;;;;;;;5009190;28;20187;-69
2023/07/18 05:39:51;;;;;;;14.60;5.50;;;;;;;;;;5005494;28;20217;-69
2023/07/18 05:42:17;;;;;;;13.90;5.93;;;;;;;;;;5009096;28;20645;-69
2023/07/18 05:44:42;;;;;;;13.48;6.07;;;;;;;;;;4989404;28;20193;-70
2023/07/18 05:47:08;;;;;;;11.85;6.05;;;;;;;;;;4992336;28;20857;-69
2023/07/18 05:49:34;;;;;;;9.68;5.75;;;;;;;;;;5002090;28;20203;-69
2023/07/18 05:51:59;;;;;;;9.52;5.72;;;;;;;;;;5004511;28;20289;-69
2023/07/18 05:54:25;;;;;;;9.27;5.75;;;;;;;;;;4999027;28;20710;-68
2023/07/18 05:56:50;;;;;;;10.07;5.65;;;;;;;;;;4993466;28;20530;-67
2023/07/18 05:59:15;;;;;;;9.80;5.85;;;;;;;;;;5009809;28;20183;-68
2023/07/18 06:01:41;;;;;;;11.32;5.95;;;;;;;;;;4995086;28;20673;-69
2023/07/18 06:04:06;;;;;;;13.55;6.13;;;;;;;;;;5008806;28;20294;-69
2023/07/18 06:06:32;;;;;;;11.80;5.35;;;;;;;;;;5003066;28;20186;-69
2023/07/18 06:08:57;;;;;;;9.57;5.95;;;;;;;;;;5008735;28;20222;-69
2023/07/18 06:11:23;;;;;;;8.93;5.80;;;;;;;;;;5010866;28;20201;-69
2023/07/18 06:13:49;;;;;;;13.23;6.40;;;;;;;;;;4995729;28;20194;-69
2023/07/18 06:16:15;;;;;;;10.30;5.60;;;;;;;;;;4998529;28;20190;-69
2023/07/18 06:18:43;;;;;;;13.60;5.72;;;;;;;;;;4998260;28;20647;-69
2023/07/18 06:21:08;;;;;;;10.38;6.00;;;;;;;;;;5010239;28;20297;-69
2023/07/18 06:23:34;;;;;;;14.73;6.22;;;;;;;;;;5010052;28;20277;-68
2023/07/18 06:26:00;;;;;;;9.70;5.80;;;;;;;;;;5013582;28;20187;-68
2023/07/18 06:28:25;;;;;;;14.55;5.35;;;;;;;;;;5004956;28;20265;-68
2023/07/18 06:30:57;;;;;;;9.88;4.75;;;;;;;;;;5009568;28;20610;-68
2023/07/18 06:33:23;;;;;;;9.80;5.30;;;;;;;;;;5007724;28;20194;-68
2023/07/18 06:35:52;;;;;;;12.40;5.38;;;;;;;;;;5004532;28;20188;-70
2023/07/18 06:38:18;;;;;;;9.73;5.15;;;;;;;;;;5013015;28;20804;-69
2023/07/18 06:40:47;;;;;;;9.85;5.07;;;;;;;;;;5001500;28;20194;-69
2023/07/18 06:43:13;;;;;;;11.15;5.43;;;;;;;;;;5001605;28;20274;-69
2023/07/18 06:45:38;;;;;;;11.65;4.88;;;;;;;;;;5019988;28;20201;-69
2023/07/18 06:48:05;;;;;;;10.32;5.15;;;;;;;;;;5013161;28;20528;-69
2023/07/18 06:50:30;;;;;;;13.07;5.05;;;;;;;;;;5014888;28;20191;-69
2023/07/18 06:52:56;;;;;;;7.88;4.75;;;;;;;;;;5012101;28;20253;-70
2023/07/18 06:55:21;;;;;;;9.85;3.92;;;;;;;;;;4996370;28;20207;-69
2023/07/18 06:57:48;;;;;;;10.05;4.93;;;;;;;;;;5015420;28;20203;-69
2023/07/18 07:00:14;;;;;;;9.43;4.28;;;;;;;;;;5001469;28;20677;-69
2023/07/18 07:02:39;;;;;;;8.65;4.25;;;;;;;;;;5011464;28;20187;-69
2023/07/18 07:05:05;;;;;;;9.13;5.10;;;;;;;;;;5012436;28;20648;-70
2023/07/18 07:07:30;;;;;;;7.05;4.32;;;;;;;;;;5000365;28;20195;-69
2023/07/18 07:09:56;;;;;;;7.90;4.60;;;;;;;;;;5012385;28;20215;-69
2023/07/18 07:12:21;;;;;;;9.27;4.80;;;;;;;;;;4999226;28;20195;-69
2023/07/18 07:14:47;;;;;;;11.65;4.53;;;;;;;;;;4998350;28;20195;-69
2023/07/18 07:17:12;;;;;;;10.95;4.28;;;;;;;;;;4999427;28;20242;-68
2023/07/18 07:19:38;;;;;;;8.20;4.15;;;;;;;;;;5007296;28;20188;-68
2023/07/18 07:22:03;;;;;;;6.88;4.20;;;;;;;;;;5004651;28;20203;-69
2023/07/18 07:24:30;;;;;;;6.95;4.32;;;;;;;;;;5010233;28;20221;-69
2023/07/18 07:26:55;;;;;;;8.70;3.95;;;;;;;;;;5000193;28;20310;-68
2023/07/18 07:29:21;;;;;;;7.28;3.70;;;;;;;;;;5016752;28;20298;-69
2023/07/18 07:31:46;;;;;;;10.30;4.20;;;;;;;;;;5003487;28;20221;-68
2023/07/18 07:34:11;;;;;;;5.93;3.70;;;;;;;;;;5005746;28;20199;-68
2023/07/18 07:36:37;;;;;;;6.38;3.83;;;;;;;;;;4995931;28;20199;-70
2023/07/18 07:39:03;;;;;;;7.28;3.45;;;;;;;;;;5006074;28;20627;-69
2023/07/18 07:41:28;;;;;;;8.18;3.28;;;;;;;;;;5004659;28;20191;-69
2023/07/18 07:43:54;;;;;;;11.43;3.47;;;;;;;;;;4997112;28;20700;-68
2023/07/18 07:46:19;;;;;;;10.68;3.10;;;;;;;;;;5004859;28;20191;-69
2023/07/18 07:48:44;;;;;;;8.45;3.05;;;;;;;;;;5000674;28;20339;-71
2023/07/18 07:51:14;;;;;;;7.20;3.22;;;;;;;;;;5007374;28;20199;-70
2023/07/18 07:53:39;;;;;;;5.93;3.13;;;;;;;;;;5013188;28;20273;-69
2023/07/18 07:56:05;;;;;;;4.88;3.10;;;;;;;;;;5008021;28;20629;-69
2023/07/18 07:58:30;;;;;;;6.95;3.42;;;;;;;;;;5009534;28;20194;-69
2023/07/18 08:00:55;;;;;;;8.85;3.33;;;;;;;;;;5007085;28;20199;-71
2023/07/18 08:03:21;;;;;;;8.40;3.15;;;;;;;;;;5002804;28;20319;-70
2023/07/18 08:05:46;;;;;;;6.85;2.97;;;;;;;;;;5008614;28;20198;-69
2023/07/18 08:08:12;;;;;;;5.63;3.30;;;;;;;;;;5003209;28;20203;-70
2023/07/18 08:10:37;;;;;;;9.73;3.42;;;;;;;;;;5007834;28;20556;-70
2023/07/18 08:13:03;;;;;;;7.50;2.97;;;;;;;;;;5003298;28;20198;-70
2023/07/18 08:15:28;;;;;;;5.78;3.00;;;;;;;;;;5004153;28;20188;-70
2023/07/18 08:17:57;;;;;;;5.95;2.95;;;;;;;;;;5014244;28;20203;-70
2023/07/18 08:20:22;;;;;;;8.95;3.33;;;;;;;;;;5005978;28;20202;-70
2023/07/18 08:22:48;;;;;;;6.03;3.10;;;;;;;;;;5001729;28;20208;-69
2023/07/18 08:25:13;;;;;;;5.50;3.25;;;;;;;;;;5014338;28;20194;-68
2023/07/18 08:27:39;;;;;;;8.77;3.40;;;;;;;;;;4998258;28;20235;-68
2023/07/18 08:30:06;;;;;;;9.80;3.30;;;;;;;;;;5001327;28;20286;-68
2023/07/18 08:32:31;;;;;;;9.35;3.08;;;;;;;;;;5006019;28;20199;-69
2023/07/18 08:34:57;;;;;;;6.45;3.05;;;;;;;;;;5005057;28;20198;-69
2023/07/18 08:37:22;;;;;;;5.18;2.65;;;;;;;;;;5004442;28;20257;-70
2023/07/18 08:39:47;;;;;;;7.30;3.55;;;;;;;;;;5017783;28;20193;-70
2023/07/18 08:42:14;;;;;;;6.93;2.95;;;;;;;;;;4993671;28;20223;-69
2023/07/18 08:44:40;;;;;;;4.50;3.15;;;;;;;;;;5006809;28;20183;-69
2023/07/18 08:47:06;;;;;;;7.35;2.70;;;;;;;;;;4995743;28;20195;-69
2023/07/18 08:49:35;;;;;;;5.57;2.90;;;;;;;;;;5006253;28;20303;-69
2023/07/18 08:52:01;;;;;;;7.32;2.50;;;;;;;;;;5007265;28;20213;-69
2023/07/18 08:54:27;;;;;;;4.75;2.45;;;;;;;;;;5015392;28;20631;-69
2023/07/18 08:56:53;;;;;;;6.93;2.50;;;;;;;;;;5003195;28;20187;-68
2023/07/18 08:59:19;;;;;;;9.98;2.60;;;;;;;;;;5002949;28;20273;-68
2023/07/18 09:01:48;;;;;;;6.85;2.35;;;;;;;;;;5003887;28;20223;-69
2023/07/18 09:04:15;;;;;;;3.63;2.03;;;;;;;;;;5003645;28;20190;-68
2023/07/18 09:06:56;;;;;;;6.88;2.47;;;;;;;;;;4996873;28;20191;-68
2023/07/18 09:09:22;;;;;;;10.85;2.60;;;;;;;;;;5006631;28;20210;-69
2023/07/18 09:11:55;;;;;;;6.57;2.70;;;;;;;;;;5002728;28;20193;-68
2023/07/18 09:14:22;;;;;;;6.10;2.05;;;;;;;;;;4999932;28;20195;-69
2023/07/18 09:16:48;;;;;;;6.55;2.13;;;;;;;;;;5008900;28;20917;-71
2023/07/18 09:19:13;;;;;;;4.80;1.80;;;;;;;;;;5003540;28;20202;-69
2023/07/18 09:21:39;;;;;;;5.40;2.05;;;;;;;;;;4998728;28;20233;-68
2023/07/18 09:24:04;;;;;;;4.32;1.80;;;;;;;;;;4997870;28;20261;-70
2023/07/18 09:26:30;;;;;;;4.40;1.80;;;;;;;;;;5012719;28;20641;-69
2023/07/18 09:28:55;;;;;;;4.20;1.65;;;;;;;;;;5014168;28;20299;-69
2023/07/18 09:31:23;;;;;;;6.60;1.90;;;;;;;;;;4305930;28;10000701;-69
2023/07/18 09:33:50;;;;;;;4.82;1.42;;;;;;;;;;5000438;28;20302;-69
2023/07/18 09:36:24;;;;;;;3.65;1.70;;;;;;;;;;4993788;28;20670;-69
2023/07/18 09:38:50;;;;;;;4.78;1.90;;;;;;;;;;5001984;28;20265;-69
2023/07/18 09:41:18;;;;;;;3.85;1.60;;;;;;;;;;4995294;28;20285;-69
2023/07/18 09:43:44;;;;;;;3.63;1.50;;;;;;;;;;5002774;28;20241;-72
2023/07/18 09:46:14;;;;;;;4.28;1.27;;;;;;;;;;4979775;28;20195;-68
2023/07/18 09:48:42;;;;;;;2.45;0.82;;;;;;;;;;5014225;28;20816;-71
2023/07/18 09:51:10;;;;;;;1.85;0.60;;;;;;;;;;5003779;28;20249;-69
2023/07/18 09:53:42;;;;;;;2.75;1.00;;;;;;;;;;5008504;28;21030;-72
2023/07/18 09:56:09;;;;;;;4.35;1.50;;;;;;;;;;4992764;28;20225;-69
2023/07/18 09:58:38;;;;;;;2.45;1.05;;;;;;;;;;5004044;28;20195;-70
2023/07/18 10:01:08;;;;;;;4.30;1.13;;;;;;;;;;5007592;28;20697;-69
2023/07/18 10:03:35;;;;;;;3.95;1.00;;;;;;;;;;4997877;28;20187;-69
2023/07/18 10:06:01;;;;;;;1.67;0.88;;;;;;;;;;5005260;28;20206;-68
2023/07/18 10:08:27;;;;;;;2.35;0.80;;;;;;;;;;5019887;28;20201;-69
2023/07/18 10:11:02;;;;;;;1.58;0.80;;;;;;;;;;5001383;28;20222;-70
2023/07/18 10:13:28;;;;;;;3.47;0.77;;;;;;;;;;4991377;28;20728;-72
2023/07/18 10:16:11;;;;;;;2.33;0.80;;;;;;;;;;5006486;28;20206;-71
2023/07/18 10:19:17;;;;;;;0.93;0.70;;;;;;;;;;5002964;28;20210;-72
2023/07/18 10:21:45;;;;;;;2.58;0.60;;;;;;;;;;4976816;28;20717;-70
2023/07/18 10:24:20;;;;;;;1.90;0.68;;;;;;;;;;4996597;28;20595;-71
2023/07/18 10:26:48;;;;;;;1.83;0.70;;;;;;;;;;4997267;28;20234;-69
2023/07/18 10:29:14;;;;;;;2.67;0.60;;;;;;;;;;4997568;28;20253;-69
2023/07/18 10:31:39;;;;;;;2.00;0.55;;;;;;;;;;4999661;28;20226;-70
2023/07/18 10:34:06;;;;;;;1.65;0.52;;;;;;;;;;5004504;28;20221;-72
2023/07/18 10:36:31;;;;;;;1.40;0.52;;;;;;;;;;4990899;28;20191;-70
2023/07/18 10:38:57;;;;;;;2.13;0.88;;;;;;;;;;5000071;28;20254;-69
2023/07/18 10:41:22;;;;;;;1.58;0.50;;;;;;;;;;4998812;28;20187;-72
2023/07/18 10:43:48;;;;;;;1.27;0.45;;;;;;;;;;5000875;28;20237;-70
2023/07/18 10:46:13;;;;;;;2.00;0.60;;;;;;;;;;4995540;28;20213;-70
2023/07/18 10:48:38;;;;;;;1.40;0.52;;;;;;;;;;4991104;28;20207;-71
2023/07/18 10:51:08;;;;;;;1.30;0.47;;;;;;;;;;4991857;28;20199;-70
2023/07/18 10:53:33;;;;;;;1.25;0.50;;;;;;;;;;4998700;28;20654;-74
2023/07/18 10:55:59;;;;;;;0.80;0.70;;;;;;;;;;4974857;28;20328;-70
2023/07/18 10:58:24;;;;;;;2.50;0.60;;;;;;;;;;5005731;28;20187;-71
2023/07/18 11:00:50;;;;;;;0.90;0.60;;;;;;;;;;4995305;28;20301;-70
2023/07/18 11:03:23;;;;;;;1.33;0.57;;;;;;;;;;5011949;28;20303;-69
2023/07/18 11:05:50;;;;;;;0.85;0.60;;;;;;;;;;4995832;28;20252;-70
2023/07/18 11:08:26;;;;;;;3.20;0.73;;;;;;;;;;5003854;28;20187;-70
2023/07/18 11:10:58;;;;;;;0.88;0.60;;;;;;;;;;5015332;28;20233;-69
2023/07/18 11:13:28;;;;;;;1.77;0.65;;;;;;;;;;5009024;28;20582;-70
2023/07/18 11:15:57;;;;;;;1.13;0.60;;;;;;;;;;5008681;28;20267;-69
2023/07/18 11:18:22;;;;;;;1.10;0.50;;;;;;;;;;5019614;28;20273;-71
2023/07/18 11:20:48;;;;;;;1.00;0.50;;;;;;;;;;5009350;28;20197;-70
2023/07/18 11:23:13;;;;;;;1.17;0.60;;;;;;;;;;5008919;28;20219;-71
2023/07/18 11:25:39;;;;;;;2.33;0.60;;;;;;;;;;4999970;28;20954;-70
2023/07/18 11:28:05;;;;;;;3.50;0.70;;;;;;;;;;4654231;28;9999851;-70
2023/07/18 11:30:31;;;;;;;1.95;0.70;;;;;;;;;;5015099;28;20194;-69
2023/07/18 11:32:56;;;;;;;2.45;0.63;;;;;;;;;;5010756;28;20191;-69
2023/07/18 11:35:23;;;;;;;1.17;0.80;;;;;;;;;;5010341;28;20198;-69
2023/07/18 11:37:52;;;;;;;2.25;0.90;;;;;;;;;;5006058;28;20610;-69
2023/07/18 11:40:25;;;;;;;1.42;0.65;;;;;;;;;;5007027;28;20314;-69
2023/07/18 11:42:57;;;;;;;5.50;0.85;;;;;;;;;;5002717;28;20190;-69
2023/07/18 11:45:25;;;;;;;3.40;0.70;;;;;;;;;;5019134;28;20549;-68
2023/07/18 11:47:55;;;;;;;2.25;0.82;;;;;;;;;;5006441;28;20605;-70
2023/07/18 11:50:24;;;;;;;3.75;1.40;;;;;;;;;;5002860;28;20212;-70
2023/07/18 11:52:51;;;;;;;6.15;1.02;;;;;;;;;;5002417;28;20210;-71
2023/07/18 11:55:18;;;;;;;1.15;0.70;;;;;;;;;;5000666;28;20269;-70
2023/07/18 11:57:44;;;;;;;2.25;0.90;;;;;;;;;;5001938;28;20192;-70
2023/07/18 12:00:11;;;;;;;2.42;1.00;;;;;;;;;;5003334;28;20671;-70
2023/07/18 12:02:37;;;;;;;1.90;0.70;;;;;;;;;;5019788;28;20650;-70
2023/07/18 12:05:04;;;;;;;0.63;0.60;;;;;;;;;;5008423;28;20250;-70
2023/07/18 12:07:29;;;;;;;1.23;0.60;;;;;;;;;;5008117;28;20195;-70
2023/07/18 12:09:55;;;;;;;2.40;1.20;;;;;;;;;;5008733;28;20206;-70
2023/07/18 12:12:21;;;;;;;3.38;1.30;;;;;;;;;;5011192;28;20653;-70
2023/07/18 12:14:47;;;;;;;1.33;0.93;;;;;;;;;;5003749;28;20221;-70
2023/07/18 12:17:12;;;;;;;5.13;0.93;;;;;;;;;;5005625;28;20207;-73
2023/07/18 12:19:37;;;;;;;2.67;1.10;;;;;;;;;;4984465;28;20555;-70
2023/07/18 12:22:03;;;;;;;0.98;0.75;;;;;;;;;;5002744;28;20202;-70
2023/07/18 12:24:28;;;;;;;2.00;0.82;;;;;;;;;;5003558;28;20198;-70
2023/07/18 12:26:54;;;;;;;3.72;0.90;;;;;;;;;;4994371;28;20233;-69
2023/07/18 12:29:19;;;;;;;1.95;0.85;;;;;;;;;;5005337;28;20218;-69
2023/07/18 12:31:51;;;;;;;0.88;0.60;;;;;;;;;;5009750;28;20350;-69
2023/07/18 12:34:17;;;;;;;2.58;0.70;;;;;;;;;;5000589;28;20191;-69
2023/07/18 12:36:43;;;;;;;1.95;0.90;;;;;;;;;;4998704;28;20191;-71
2023/07/18 12:39:09;;;;;;;1.13;0.85;;;;;;;;;;4999007;28;20214;-69
2023/07/18 12:41:35;;;;;;;1.67;0.80;;;;;;;;;;4999200;28;20198;-70
2023/07/18 12:44:00;;;;;;;2.33;0.90;;;;;;;;;;5008009;28;20199;-70
2023/07/18 12:46:26;;;;;;;2.40;0.80;;;;;;;;;;5001618;28;20206;-70
2023/07/18 12:48:55;;;;;;;2.03;0.98;;;;;;;;;;5004728;28;20221;-69
2023/07/18 12:51:22;;;;;;;1.90;1.05;;;;;;;;;;5006927;28;20269;-69
2023/07/18 12:53:47;;;;;;;3.40;1.33;;;;;;;;;;4999989;28;20197;-70
2023/07/18 12:56:14;;;;;;;3.42;1.00;;;;;;;;;;4991394;28;20187;-69
2023/07/18 12:58:41;;;;;;;2.38;1.10;;;;;;;;;;4996463;28;20187;-69
2023/07/18 13:01:07;;;;;;;2.95;1.17;;;;;;;;;;5003621;28;20190;-70
2023/07/18 13:03:33;;;;;;;1.67;0.80;;;;;;;;;;5007093;28;20800;-69
2023/07/18 13:05:58;;;;;;;4.03;1.02;;;;;;;;;;4995324;28;20199;-70
2023/07/18 13:08:24;;;;;;;2.65;0.90;;;;;;;;;;5002433;28;20198;-69
2023/07/18 13:10:49;;;;;;;1.40;1.00;;;;;;;;;;5002698;28;20246;-69
2023/07/18 13:13:15;;;;;;;1.75;0.90;;;;;;;;;;5005820;28;20197;-69
2023/07/18 13:15:41;;;;;;;3.70;0.90;;;;;;;;;;5008925;28;20190;-70
2023/07/18 13:18:08;;;;;;;2.55;1.00;;;;;;;;;;5002906;28;20218;-69
2023/07/18 13:20:34;;;;;;;2.40;0.80;;;;;;;;;;5003269;28;20252;-71
2023/07/18 13:22:59;;;;;;;1.65;0.70;;;;;;;;;;5001579;28;20661;-69
2023/07/18 13:25:25;;;;;;;3.35;1.10;;;;;;;;;;5004270;28;20269;-69
2023/07/18 13:27:50;;;;;;;1.95;0.70;;;;;;;;;;5008175;28;20231;-70
2023/07/18 13:30:16;;;;;;;3.17;0.90;;;;;;;;;;5005347;28;20625;-69
2023/07/18 13:32:42;;;;;;;2.08;0.90;;;;;;;;;;5003864;28;20222;-69
2023/07/18 13:35:07;;;;;;;2.38;0.65;;;;;;;;;;4998061;28;20194;-69
2023/07/18 13:37:33;;;;;;;1.50;0.88;;;;;;;;;;5001825;28;20184;-70
2023/07/18 13:39:58;;;;;;;1.42;0.70;;;;;;;;;;4992502;28;20213;-71
2023/07/18 13:42:23;;;;;;;2.22;0.85;;;;;;;;;;5001312;28;20259;-72
2023/07/18 13:44:50;;;;;;;2.25;0.90;;;;;;;;;;5002017;28;20663;-69
2023/07/18 13:47:16;;;;;;;2.80;0.88;;;;;;;;;;4982991;28;20677;-69
2023/07/18 13:49:42;;;;;;;3.03;0.70;;;;;;;;;;4992893;28;20250;-70
2023/07/18 13:52:07;;;;;;;1.88;0.80;;;;;;;;;;5000614;28;20188;-69
2023/07/18 13:54:33;;;;;;;1.23;0.70;;;;;;;;;;4995605;28;20250;-71
2023/07/18 13:56:58;;;;;;;3.10;0.90;;;;;;;;;;5006514;28;20213;-70
2023/07/18 13:59:24;;;;;;;2.80;0.95;;;;;;;;;;5005218;28;20225;-70
2023/07/18 14:01:49;;;;;;;2.65;0.80;;;;;;;;;;4995658;28;20282;-70
2023/07/18 14:04:16;;;;;;;1.38;0.90;;;;;;;;;;4990266;28;20204;-69
2023/07/18 14:06:41;;;;;;;1.67;0.73;;;;;;;;;;5003404;28;20328;-69
2023/07/18 14:09:07;;;;;;;1.88;0.82;;;;;;;;;;5009079;28;20310;-70
2023/07/18 14:11:32;;;;;;;1.23;0.68;;;;;;;;;;5004870;28;20189;-70
2023/07/18 14:14:00;;;;;;;3.80;0.93;;;;;;;;;;4994077;28;20217;-70
2023/07/18 14:16:26;;;;;;;1.38;0.90;;;;;;;;;;5002589;28;20191;-70
2023/07/18 14:18:55;;;;;;;1.63;0.60;;;;;;;;;;5004068;28;20205;-69
2023/07/18 14:21:21;;;;;;;1.92;0.80;;;;;;;;;;5004940;28;20198;-71
2023/07/18 14:23:46;;;;;;;1.30;0.80;;;;;;;;;;5005156;28;20206;-71
2023/07/18 14:26:12;;;;;;;1.17;0.73;;;;;;;;;;5013571;28;20190;-70
2023/07/18 14:28:37;;;;;;;2.42;1.00;;;;;;;;;;4999129;28;20218;-70
2023/07/18 14:31:02;;;;;;;3.95;0.90;;;;;;;;;;5002957;28;20713;-71
2023/07/18 14:33:28;;;;;;;1.92;0.90;;;;;;;;;;5006073;28;20207;-70